createdAt,value
2018-09-23T00:00:12.783Z,16.02
2018-09-23T00:02:41.172Z,16.03
2018-09-23T00:05:09.552Z,16.08
2018-09-23T00:07:37.879Z,16.05
2018-09-23T00:10:06.357Z,16.06
2018-09-23T00:12:34.703Z,16.05
2018-09-23T00:15:03.063Z,15.95
2018-09-23T00:17:31.467Z,15.84
2018-09-23T00:19:59.828Z,15.75
2018-09-23T00:22:28.251Z,15.75
2018-09-23T00:24:56.617Z,15.74
2018-09-23T00:27:25.013Z,15.72
2018-09-23T00:29:53.351Z,15.68
2018-09-23T00:32:23.727Z,15.66
2018-09-23T00:34:52.159Z,15.67
2018-09-23T00:37:20.744Z,15.66
2018-09-23T00:39:49.267Z,15.65
2018-09-23T00:42:17.631Z,15.65
2018-09-23T00:44:45.979Z,15.55
2018-09-23T00:47:14.475Z,15.51
2018-09-23T00:49:42.835Z,15.48
2018-09-23T00:52:11.174Z,15.43
2018-09-23T00:54:39.641Z,15.38
2018-09-23T00:57:08.065Z,15.35
2018-09-23T00:59:37.421Z,15.33
2018-09-23T01:02:05.815Z,15.29
2018-09-23T01:04:34.209Z,15.28
2018-09-23T01:07:02.565Z,15.29
2018-09-23T01:09:30.933Z,15.27
2018-09-23T01:11:59.282Z,15.25
2018-09-23T01:14:27.769Z,15.28
2018-09-23T01:16:56.160Z,15.36
2018-09-23T01:19:24.584Z,15.39
2018-09-23T01:21:52.933Z,15.39
2018-09-23T01:24:21.294Z,15.33
2018-09-23T01:26:49.638Z,15.27
2018-09-23T01:29:17.962Z,15.26
2018-09-23T01:31:46.362Z,15.28
2018-09-23T01:34:14.683Z,15.35
2018-09-23T01:36:43.061Z,15.41
2018-09-23T01:39:11.411Z,15.43
2018-09-23T01:41:39.823Z,15.42
2018-09-23T01:44:08.145Z,15.38
2018-09-23T01:46:36.611Z,15.39
2018-09-23T01:49:04.995Z,15.45
2018-09-23T01:51:33.323Z,15.50
2018-09-23T01:54:01.799Z,15.54
2018-09-23T01:56:30.132Z,15.56
2018-09-23T01:58:58.515Z,15.53
2018-09-23T02:01:27.135Z,15.56
2018-09-23T02:03:55.517Z,15.62
2018-09-23T02:06:23.950Z,15.62
2018-09-23T02:08:52.367Z,15.63
2018-09-23T02:11:20.679Z,15.63
2018-09-23T02:13:49.014Z,15.66
2018-09-23T02:16:17.469Z,15.65
2018-09-23T02:18:45.857Z,15.61
2018-09-23T02:21:14.288Z,15.58
2018-09-23T02:23:42.635Z,15.56
2018-09-23T02:26:10.993Z,15.55
2018-09-23T02:28:39.311Z,15.58
2018-09-23T02:31:07.857Z,15.55
2018-09-23T02:33:36.190Z,15.50
2018-09-23T02:36:04.547Z,15.52
2018-09-23T02:38:32.928Z,15.47
2018-09-23T02:41:01.261Z,15.47
2018-09-23T02:43:29.605Z,15.47
2018-09-23T02:45:57.957Z,15.49
2018-09-23T02:48:26.307Z,15.51
2018-09-23T02:50:54.645Z,15.52
2018-09-23T02:53:23.103Z,15.50
2018-09-23T02:55:51.420Z,15.46
2018-09-23T02:58:19.779Z,15.44
2018-09-23T03:00:48.150Z,15.44
2018-09-23T03:03:16.587Z,15.41
2018-09-23T03:05:45.019Z,15.36
2018-09-23T03:08:13.729Z,15.33
2018-09-23T03:10:42.085Z,15.29
2018-09-23T03:13:10.463Z,15.26
2018-09-23T03:15:38.865Z,15.24
2018-09-23T03:18:07.248Z,15.20
2018-09-23T03:20:35.605Z,15.19
2018-09-23T03:23:04.091Z,15.15
2018-09-23T03:25:33.494Z,15.12
2018-09-23T03:28:01.879Z,15.12
2018-09-23T03:30:30.243Z,15.09
2018-09-23T03:32:58.659Z,15.03
2018-09-23T03:35:26.987Z,15.01
2018-09-23T03:37:55.475Z,14.94
2018-09-23T03:40:23.805Z,14.88
2018-09-23T03:42:52.194Z,14.90
2018-09-23T03:45:20.545Z,14.93
2018-09-23T03:47:48.879Z,14.95
2018-09-23T03:50:17.258Z,14.95
2018-09-23T03:52:45.632Z,14.98
2018-09-23T03:55:14.140Z,15.00
2018-09-23T03:57:42.478Z,15.00
2018-09-23T04:00:10.880Z,15.02
2018-09-23T04:02:39.208Z,15.05
2018-09-23T04:05:07.579Z,15.03
2018-09-23T04:07:36.029Z,15.01
2018-09-23T04:10:04.447Z,15.03
2018-09-23T04:12:32.776Z,15.02
2018-09-23T04:15:01.140Z,15.00
2018-09-23T04:17:29.502Z,14.99
2018-09-23T04:19:57.875Z,14.94
2018-09-23T04:22:26.262Z,14.94
2018-09-23T04:24:54.596Z,14.95
2018-09-23T04:27:22.929Z,14.96
2018-09-23T04:29:51.370Z,14.95
2018-09-23T04:32:19.692Z,14.93
2018-09-23T04:34:48.060Z,14.94
2018-09-23T04:37:16.412Z,14.95
2018-09-23T04:39:44.752Z,14.99
2018-09-23T04:42:13.089Z,14.99
2018-09-23T04:44:41.476Z,15.02
2018-09-23T04:47:09.808Z,15.06
2018-09-23T04:49:38.140Z,15.08
2018-09-23T04:52:06.621Z,15.08
2018-09-23T04:54:34.979Z,15.08
2018-09-23T04:57:03.553Z,15.05
2018-09-23T04:59:31.920Z,15.04
2018-09-23T05:02:00.260Z,15.04
2018-09-23T05:04:28.589Z,15.04
2018-09-23T05:06:57.076Z,15.02
2018-09-23T05:09:25.383Z,14.99
2018-09-23T05:11:53.718Z,14.90
2018-09-23T05:14:22.092Z,14.86
2018-09-23T05:16:50.480Z,14.88
2018-09-23T05:19:18.872Z,14.90
2018-09-23T05:21:47.292Z,14.90
2018-09-23T05:24:15.627Z,14.89
2018-09-23T05:26:43.990Z,14.87
2018-09-23T05:29:12.363Z,14.87
2018-09-23T05:31:40.845Z,14.91
2018-09-23T05:34:09.727Z,14.92
2018-09-23T05:36:38.131Z,14.88
2018-09-23T05:39:08.201Z,14.88
2018-09-23T05:41:36.824Z,14.87
2018-09-23T05:44:05.287Z,14.83
2018-09-23T05:46:33.579Z,14.86
2018-09-23T05:49:01.919Z,14.88
2018-09-23T05:51:30.299Z,14.89
2018-09-23T05:53:58.769Z,14.88
2018-09-23T05:56:27.135Z,14.88
2018-09-23T05:58:55.521Z,14.88
2018-09-23T06:01:23.895Z,14.83
2018-09-23T06:03:52.223Z,14.78
2018-09-23T06:06:20.621Z,14.69
2018-09-23T06:08:48.991Z,14.63
2018-09-23T06:11:17.425Z,14.61
2018-09-23T06:13:45.843Z,14.59
2018-09-23T06:16:14.191Z,14.59
2018-09-23T06:18:42.609Z,14.59
2018-09-23T06:21:10.995Z,14.55
2018-09-23T06:23:39.805Z,14.47
2018-09-23T06:26:08.384Z,14.46
2018-09-23T06:28:36.799Z,14.51
2018-09-23T06:31:05.319Z,14.53
2018-09-23T06:33:33.696Z,14.54
2018-09-23T06:36:02.085Z,14.55
2018-09-23T06:38:30.433Z,14.57
2018-09-23T06:40:58.819Z,14.58
2018-09-23T06:43:27.302Z,14.61
2018-09-23T06:45:55.656Z,14.62
2018-09-23T06:48:23.995Z,14.65
2018-09-23T06:50:52.391Z,14.69
2018-09-23T06:53:20.754Z,14.67
2018-09-23T06:55:49.108Z,14.67
2018-09-23T06:58:17.484Z,14.68
2018-09-23T07:00:45.860Z,14.69
2018-09-23T07:03:14.187Z,14.73
2018-09-23T07:05:42.649Z,14.75
2018-09-23T07:08:11.045Z,14.80
2018-09-23T07:10:39.961Z,14.81
2018-09-23T07:13:08.369Z,14.81
2018-09-23T07:15:36.799Z,14.83
2018-09-23T07:18:05.247Z,14.86
2018-09-23T07:20:34.321Z,14.87
2018-09-23T07:23:02.657Z,14.91
2018-09-23T07:25:31.039Z,14.94
2018-09-23T07:27:59.437Z,14.93
2018-09-23T07:30:27.777Z,14.91
2018-09-23T07:32:56.136Z,14.93
2018-09-23T07:35:24.526Z,14.95
2018-09-23T07:37:52.869Z,14.98
2018-09-23T07:40:21.209Z,15.00
2018-09-23T07:42:49.618Z,15.03
2018-09-23T07:45:17.980Z,15.08
2018-09-23T07:47:46.332Z,15.16
2018-09-23T07:50:14.747Z,15.26
2018-09-23T07:52:43.102Z,15.30
2018-09-23T07:55:11.496Z,15.36
2018-09-23T07:57:40.029Z,15.41
2018-09-23T08:00:08.400Z,15.45
2018-09-23T08:02:36.748Z,15.49
2018-09-23T08:05:05.164Z,15.53
2018-09-23T08:07:33.540Z,15.54
2018-09-23T08:10:01.885Z,15.52
2018-09-23T08:12:30.379Z,15.50
2018-09-23T08:14:59.003Z,15.50
2018-09-23T08:17:27.108Z,15.50
2018-09-23T08:19:55.575Z,15.52
2018-09-23T08:22:23.872Z,15.56
2018-09-23T08:24:52.255Z,15.57
2018-09-23T08:27:20.608Z,15.59
2018-09-23T08:29:48.974Z,15.61
2018-09-23T08:32:17.307Z,15.62
2018-09-23T08:34:45.689Z,15.63
2018-09-23T08:37:14.038Z,15.66
2018-09-23T08:39:42.431Z,15.71
2018-09-23T08:42:10.799Z,15.76
2018-09-23T08:44:39.159Z,15.81
2018-09-23T08:47:07.520Z,15.85
2018-09-23T08:49:35.901Z,15.87
2018-09-23T08:52:04.311Z,15.94
2018-09-23T08:54:32.640Z,16.00
2018-09-23T08:57:01.008Z,16.09
2018-09-23T08:59:29.387Z,16.19
2018-09-23T09:01:57.749Z,16.26
2018-09-23T09:04:26.128Z,16.32
2018-09-23T09:06:55.693Z,16.32
2018-09-23T09:09:24.123Z,16.34
2018-09-23T09:11:52.607Z,16.39
2018-09-23T09:14:20.907Z,16.43
2018-09-23T09:16:49.263Z,16.46
2018-09-23T09:19:17.733Z,16.52
2018-09-23T09:21:46.076Z,16.61
2018-09-23T09:24:14.407Z,16.68
2018-09-23T09:26:42.842Z,16.73
2018-09-23T09:29:11.186Z,16.80
2018-09-23T09:31:39.590Z,16.87
2018-09-23T09:34:08.237Z,16.93
2018-09-23T09:36:36.603Z,16.98
2018-09-23T09:39:07.831Z,17.00
2018-09-23T09:41:36.321Z,17.06
2018-09-23T09:44:04.908Z,17.11
2018-09-23T09:46:33.285Z,17.18
2018-09-23T09:49:01.651Z,17.23
2018-09-23T09:51:29.982Z,17.27
2018-09-23T09:53:58.317Z,17.30
2018-09-23T09:56:26.668Z,17.38
2018-09-23T09:58:55.036Z,17.50
2018-09-23T10:01:23.373Z,17.63
2018-09-23T10:03:51.885Z,17.70
2018-09-23T10:06:20.166Z,17.77
2018-09-23T10:08:48.506Z,17.90
2018-09-23T10:11:16.999Z,18.13
2018-09-23T10:13:45.355Z,18.33
2018-09-23T10:16:13.688Z,18.51
2018-09-23T10:18:42.119Z,18.72
2018-09-23T10:21:10.643Z,18.84
2018-09-23T10:23:39.074Z,18.83
2018-09-23T10:26:07.462Z,18.77
2018-09-23T10:28:35.837Z,18.72
2018-09-23T10:31:04.227Z,18.67
2018-09-23T10:33:32.677Z,18.59
2018-09-23T10:36:01.116Z,18.58
2018-09-23T10:38:29.530Z,18.53
2018-09-23T10:40:57.857Z,18.62
2018-09-23T10:43:26.231Z,18.83
2018-09-23T10:45:54.586Z,18.96
2018-09-23T10:48:23.083Z,19.05
2018-09-23T10:50:51.720Z,19.20
2018-09-23T10:53:20.099Z,19.30
2018-09-23T10:55:48.583Z,19.40
2018-09-23T10:58:16.932Z,19.42
2018-09-23T11:00:45.270Z,19.41
2018-09-23T11:03:13.628Z,19.41
2018-09-23T11:05:41.969Z,19.40
2018-09-23T11:08:10.318Z,19.43
2018-09-23T11:10:38.766Z,19.47
2018-09-23T11:13:07.236Z,19.64
2018-09-23T11:15:35.624Z,19.96
2018-09-23T11:18:04.141Z,20.31
2018-09-23T11:20:32.472Z,20.59
2018-09-23T11:23:00.804Z,20.68
2018-09-23T11:25:29.177Z,20.70
2018-09-23T11:27:57.540Z,20.79
2018-09-23T11:30:25.907Z,20.84
2018-09-23T11:32:54.269Z,20.93
2018-09-23T11:35:22.616Z,21.23
2018-09-23T11:37:50.956Z,21.51
2018-09-23T11:40:19.324Z,21.71
2018-09-23T11:42:47.677Z,21.86
2018-09-23T11:45:16.026Z,21.92
2018-09-23T11:47:44.398Z,21.95
2018-09-23T11:50:12.780Z,22.06
2018-09-23T11:52:41.207Z,22.27
2018-09-23T11:55:09.600Z,22.31
2018-09-23T11:57:37.960Z,22.26
2018-09-23T12:00:07.223Z,22.13
2018-09-23T12:02:35.769Z,22.05
2018-09-23T12:05:04.152Z,22.06
2018-09-23T12:07:32.483Z,22.08
2018-09-23T12:10:00.961Z,22.12
2018-09-23T12:12:29.395Z,22.33
2018-09-23T12:14:57.795Z,22.54
2018-09-23T12:17:26.153Z,22.63
2018-09-23T12:19:54.546Z,22.72
2018-09-23T12:22:22.881Z,22.91
2018-09-23T12:24:51.305Z,23.06
2018-09-23T12:27:19.680Z,23.22
2018-09-23T12:29:48.025Z,23.23
2018-09-23T12:32:16.411Z,23.15
2018-09-23T12:34:44.820Z,23.27
2018-09-23T12:37:14.342Z,23.45
2018-09-23T12:39:42.801Z,23.61
2018-09-23T12:42:11.112Z,23.75
2018-09-23T12:44:39.455Z,23.89
2018-09-23T12:47:07.863Z,23.92
2018-09-23T12:49:36.195Z,23.94
2018-09-23T12:52:04.539Z,23.96
2018-09-23T12:54:32.949Z,24.05
2018-09-23T12:57:01.307Z,24.15
2018-09-23T12:59:29.638Z,24.21
2018-09-23T13:01:58.004Z,24.22
2018-09-23T13:04:26.336Z,24.18
2018-09-23T13:06:54.687Z,24.16
2018-09-23T13:09:23.168Z,24.18
2018-09-23T13:11:51.553Z,24.24
2018-09-23T13:14:19.908Z,24.31
2018-09-23T13:16:48.307Z,24.32
2018-09-23T13:19:16.735Z,24.38
2018-09-23T13:21:45.150Z,24.31
2018-09-23T13:24:13.600Z,24.28
2018-09-23T13:26:41.999Z,24.22
2018-09-23T13:29:10.464Z,24.09
2018-09-23T13:31:38.878Z,24.02
2018-09-23T13:34:07.280Z,23.99
2018-09-23T13:36:35.758Z,23.87
2018-09-23T13:39:05.248Z,23.74
2018-09-23T13:41:33.614Z,23.81
2018-09-23T13:44:01.945Z,23.97
2018-09-23T13:46:30.344Z,23.97
2018-09-23T13:48:58.772Z,23.89
2018-09-23T13:51:27.490Z,23.81
2018-09-23T13:53:55.949Z,23.78
2018-09-23T13:56:24.389Z,23.77
2018-09-23T13:58:52.807Z,23.77
2018-09-23T14:01:21.180Z,23.81
2018-09-23T14:03:49.772Z,23.84
2018-09-23T14:06:18.140Z,23.83
2018-09-23T14:08:46.528Z,23.80
2018-09-23T14:11:14.884Z,23.81
2018-09-23T14:13:43.256Z,23.79
2018-09-23T14:16:11.727Z,23.76
2018-09-23T14:18:40.131Z,23.79
2018-09-23T14:21:08.466Z,23.84
2018-09-23T14:23:36.848Z,23.87
2018-09-23T14:26:05.279Z,23.90
2018-09-23T14:28:33.599Z,23.88
2018-09-23T14:31:01.999Z,23.86
2018-09-23T14:33:30.335Z,23.90
2018-09-23T14:35:58.687Z,23.88
2018-09-23T14:38:27.131Z,23.84
2018-09-23T14:40:55.692Z,23.76
2018-09-23T14:43:24.067Z,23.68
2018-09-23T14:45:52.463Z,23.69
2018-09-23T14:48:20.930Z,23.85
2018-09-23T14:50:50.030Z,24.02
2018-09-23T14:53:24.746Z,24.14
2018-09-23T14:55:53.132Z,24.21
2018-09-23T14:58:21.490Z,24.28
2018-09-23T15:00:50.000Z,24.34
2018-09-23T15:03:18.928Z,24.44
2018-09-23T15:05:47.307Z,24.49
2018-09-23T15:08:15.748Z,24.53
2018-09-23T15:10:44.144Z,24.55
2018-09-23T15:13:12.654Z,24.59
2018-09-23T15:15:41.065Z,24.61
2018-09-23T15:18:09.468Z,24.63
2018-09-23T15:20:37.816Z,24.66
2018-09-23T15:23:06.286Z,24.70
2018-09-23T15:25:34.653Z,24.72
2018-09-23T15:28:03.040Z,24.74
2018-09-23T15:30:31.484Z,24.78
2018-09-23T15:33:00.752Z,24.81
2018-09-23T15:35:29.098Z,24.78
2018-09-23T15:37:57.568Z,24.73
2018-09-23T15:40:25.908Z,24.66
2018-09-23T15:42:54.280Z,24.63
2018-09-23T15:45:22.734Z,24.62
2018-09-23T15:47:51.076Z,24.60
2018-09-23T15:50:19.442Z,24.57
2018-09-23T15:52:47.842Z,24.55
2018-09-23T15:55:16.196Z,24.47
2018-09-23T15:57:44.556Z,24.43
2018-09-23T16:00:12.977Z,24.39
2018-09-23T16:02:41.312Z,24.28
2018-09-23T16:05:09.676Z,24.17
2018-09-23T16:07:38.108Z,24.06
2018-09-23T16:10:06.472Z,23.95
2018-09-23T16:12:34.900Z,23.89
2018-09-23T16:15:03.331Z,23.83
2018-09-23T16:17:31.935Z,23.77
2018-09-23T16:20:00.321Z,23.74
2018-09-23T16:22:28.726Z,23.70
2018-09-23T16:24:57.634Z,23.69
2018-09-23T16:27:25.989Z,23.61
2018-09-23T16:29:54.859Z,23.53
2018-09-23T16:32:23.220Z,23.48
2018-09-23T16:34:51.716Z,23.42
2018-09-23T16:37:20.139Z,23.34
2018-09-23T16:39:48.487Z,23.28
2018-09-23T16:42:16.854Z,23.20
2018-09-23T16:44:45.252Z,23.16
2018-09-23T16:47:13.684Z,23.14
2018-09-23T16:49:42.064Z,23.08
2018-09-23T16:52:10.472Z,22.98
2018-09-23T16:54:38.972Z,22.90
2018-09-23T16:57:07.360Z,22.82
2018-09-23T16:59:35.766Z,22.75
2018-09-23T17:02:04.169Z,22.70
2018-09-23T17:04:32.518Z,22.58
2018-09-23T17:07:00.915Z,22.47
2018-09-23T17:09:29.275Z,22.37
2018-09-23T17:11:57.642Z,22.26
2018-09-23T17:14:26.263Z,22.18
2018-09-23T17:16:54.657Z,22.17
2018-09-23T17:19:23.163Z,22.14
2018-09-23T17:21:51.627Z,22.14
2018-09-23T17:24:20.009Z,22.15
2018-09-23T17:26:48.355Z,22.15
2018-09-23T17:29:16.990Z,22.14
2018-09-23T17:31:45.377Z,22.11
2018-09-23T17:34:13.771Z,22.07
2018-09-23T17:36:42.191Z,22.03
2018-09-23T17:39:11.551Z,21.96
2018-09-23T17:41:40.602Z,21.92
2018-09-23T17:44:09.317Z,21.86
2018-09-23T17:46:37.955Z,21.81
2018-09-23T17:49:06.387Z,21.83
2018-09-23T17:51:34.800Z,21.87
2018-09-23T17:54:03.335Z,21.87
2018-09-23T17:56:31.710Z,21.87
2018-09-23T17:59:00.283Z,21.82
2018-09-23T18:01:28.826Z,21.77
2018-09-23T18:03:57.183Z,21.74
2018-09-23T18:06:25.653Z,21.71
2018-09-23T18:08:54.377Z,21.69
2018-09-23T18:11:22.821Z,21.67
2018-09-23T18:13:52.291Z,21.66
2018-09-23T18:16:20.663Z,21.63
2018-09-23T18:18:49.265Z,21.62
2018-09-23T18:21:17.904Z,21.62
2018-09-23T18:23:46.245Z,21.63
2018-09-23T18:26:14.787Z,21.65
2018-09-23T18:28:43.304Z,21.63
2018-09-23T18:31:11.700Z,21.65
2018-09-23T18:33:40.094Z,21.66
2018-09-23T18:36:08.721Z,21.66
2018-09-23T18:38:37.125Z,21.62
2018-09-23T18:41:05.827Z,21.62
2018-09-23T18:43:34.423Z,21.67
2018-09-23T18:46:02.744Z,21.77
2018-09-23T18:48:31.136Z,21.91
2018-09-23T18:50:59.712Z,22.00
2018-09-23T18:53:28.068Z,22.08
2018-09-23T18:55:56.421Z,22.11
2018-09-23T18:58:25.048Z,22.15
2018-09-23T19:00:53.444Z,22.19
2018-09-23T19:03:21.880Z,22.27
2018-09-23T19:05:50.396Z,22.28
2018-09-23T19:08:18.784Z,22.26
2018-09-23T19:10:47.154Z,22.28
2018-09-23T19:13:22.316Z,22.29
2018-09-23T19:15:56.077Z,22.26
2018-09-23T19:18:24.564Z,22.26
2018-09-23T19:20:52.990Z,22.29
2018-09-23T19:23:21.688Z,22.32
2018-09-23T19:25:50.088Z,22.38
2018-09-23T19:28:19.322Z,22.43
2018-09-23T19:30:47.908Z,22.49
2018-09-23T19:33:16.989Z,22.53
2018-09-23T19:35:45.488Z,22.52
2018-09-23T19:38:13.963Z,22.49
2018-09-23T19:40:42.651Z,22.47
2018-09-23T19:43:11.185Z,22.46
2018-09-23T19:45:39.657Z,22.44
2018-09-23T19:48:08.094Z,22.39
2018-09-23T19:50:36.645Z,22.00
2018-09-23T19:53:05.107Z,21.35
2018-09-23T19:55:33.733Z,20.75
2018-09-23T19:58:02.114Z,20.14
2018-09-23T20:00:31.223Z,19.56
2018-09-23T20:02:59.784Z,18.92
2018-09-23T20:05:34.923Z,18.38
2018-09-23T20:08:03.571Z,17.97
2018-09-23T20:10:32.566Z,17.59
2018-09-23T20:13:00.972Z,17.38
2018-09-23T20:15:29.480Z,17.25
2018-09-23T20:17:58.661Z,17.15
2018-09-23T20:20:27.505Z,17.04
2018-09-23T20:22:56.013Z,16.95
2018-09-23T20:25:24.480Z,16.94
2018-09-23T20:27:52.961Z,16.90
2018-09-23T20:30:21.403Z,16.93
2018-09-23T20:32:49.877Z,16.93
2018-09-23T20:35:18.296Z,16.93
2018-09-23T20:37:46.840Z,16.92
2018-09-23T20:40:15.164Z,16.80
2018-09-23T20:42:43.543Z,16.76
2018-09-23T20:45:12.139Z,16.79
2018-09-23T20:47:40.621Z,16.80
2018-09-23T20:50:08.969Z,16.81
2018-09-23T20:52:37.445Z,16.87
2018-09-23T20:55:06.092Z,16.94
2018-09-23T20:57:34.470Z,17.04
2018-09-23T21:00:03.031Z,17.12
2018-09-23T21:02:31.379Z,17.18
2018-09-23T21:04:59.885Z,17.19
2018-09-23T21:07:28.456Z,17.21
2018-09-23T21:09:56.822Z,17.23
2018-09-23T21:12:25.272Z,17.15
2018-09-23T21:14:53.843Z,17.03
2018-09-23T21:17:23.293Z,16.88
2018-09-23T21:19:52.201Z,16.78
2018-09-23T21:22:20.637Z,16.68
2018-09-23T21:24:49.084Z,16.59
2018-09-23T21:27:17.429Z,16.44
2018-09-23T21:29:45.935Z,16.37
2018-09-23T21:32:14.591Z,16.27
2018-09-23T21:34:42.955Z,16.19
2018-09-23T21:37:11.579Z,16.13
2018-09-23T21:39:40.028Z,16.15
2018-09-23T21:42:09.037Z,16.12
2018-09-23T21:44:37.528Z,16.05
2018-09-23T21:47:05.913Z,16.04
2018-09-23T21:49:34.232Z,16.03
2018-09-23T21:52:02.698Z,16.05
2018-09-23T21:54:31.031Z,16.02
2018-09-23T21:56:59.352Z,15.99
2018-09-23T21:59:27.890Z,15.92
2018-09-23T22:01:56.250Z,15.89
2018-09-23T22:04:24.684Z,15.80
2018-09-23T22:06:53.239Z,15.64
2018-09-23T22:09:21.628Z,15.41
2018-09-23T22:11:50.003Z,15.18
2018-09-23T22:14:18.587Z,15.06
2018-09-23T22:16:46.987Z,14.98
2018-09-23T22:19:15.360Z,14.64
2018-09-23T22:21:43.922Z,14.27
2018-09-23T22:24:12.363Z,14.12
2018-09-23T22:26:40.687Z,14.10
2018-09-23T22:29:09.087Z,14.15
2018-09-23T22:31:37.461Z,14.14
2018-09-23T22:34:05.835Z,14.18
2018-09-23T22:36:34.268Z,14.25
2018-09-23T22:39:02.663Z,14.25
2018-09-23T22:41:31.069Z,14.28
2018-09-23T22:43:59.481Z,14.29
2018-09-23T22:46:27.959Z,14.28
2018-09-23T22:48:56.288Z,14.33
2018-09-23T22:51:24.779Z,14.31
2018-09-23T22:53:53.181Z,14.25
2018-09-23T22:56:21.549Z,14.18
2018-09-23T22:58:50.111Z,14.18
2018-09-23T23:01:18.477Z,14.12
2018-09-23T23:03:46.817Z,14.15
2018-09-23T23:06:15.453Z,14.14
2018-09-23T23:08:43.921Z,14.09
2018-09-23T23:11:12.326Z,14.09
2018-09-23T23:13:40.841Z,14.13
2018-09-23T23:16:09.211Z,14.13
2018-09-23T23:18:37.569Z,14.16
2018-09-23T23:21:06.093Z,14.23
2018-09-23T23:23:34.441Z,14.24
2018-09-23T23:26:02.823Z,14.21
2018-09-23T23:28:31.270Z,14.14
2018-09-23T23:30:59.679Z,14.13
2018-09-23T23:33:28.191Z,14.16
2018-09-23T23:35:56.659Z,14.23
2018-09-23T23:38:25.155Z,14.18
2018-09-23T23:40:53.496Z,14.13
2018-09-23T23:43:21.878Z,14.12
2018-09-23T23:45:50.215Z,14.14
2018-09-23T23:48:18.620Z,14.14
2018-09-23T23:50:47.075Z,14.09
2018-09-23T23:53:15.420Z,14.13
2018-09-23T23:55:43.826Z,14.10
2018-09-23T23:58:12.240Z,14.06
